Time;durP1;ratioP1;P1;durP2;ratioP2;P2;SDS_P1;SDS_P2;PMS_P1;PMS_P2;Temp;Humidity;BMP_temperature;BMP_pressure;BME280_temperature;BME280_humidity;BME280_pressure;Samples;Min_cycle;Max_cycle;Signal;HPM_P1;HPM_P2
2023/04/08 00:05:00;;;;;;;12.83;9.70;;;7.00;99.90;;;;;;10169137;29;20294;-82
2023/04/08 00:10:04;;;;;;;13.63;9.33;;;7.00;99.90;;;;;;10165194;29;20768;-82
2023/04/08 00:15:07;;;;;;;13.03;9.37;;;7.20;99.90;;;;;;10169241;29;20267;-82
2023/04/08 00:20:10;;;;;;;9.37;7.83;;;7.20;99.90;;;;;;10169198;29;20314;-82
2023/04/08 00:25:13;;;;;;;13.97;9.90;;;7.00;99.90;;;;;;10168105;29;20645;-82
2023/04/08 00:30:15;;;;;;;14.73;10.10;;;7.00;99.90;;;;;;10168877;29;20263;-82
2023/04/08 00:35:20;;;;;;;15.50;9.97;;;6.50;99.90;;;;;;10151100;29;20713;-82
2023/04/08 00:40:23;;;;;;;9.90;7.70;;;6.20;99.90;;;;;;10167044;29;20615;-82
2023/04/08 00:45:25;;;;;;;11.90;9.23;;;6.40;99.90;;;;;;10168442;29;20669;-82
2023/04/08 00:50:28;;;;;;;12.13;9.70;;;6.70;99.90;;;;;;10167368;29;20323;-82
2023/04/08 00:55:30;;;;;;;16.00;10.87;;;7.00;99.90;;;;;;10167914;29;20606;-82
2023/04/08 01:00:35;;;;;;;15.67;10.77;;;7.30;99.90;;;;;;10168246;29;20957;-82
2023/04/08 01:05:53;;;;;;;12.67;8.67;;;7.30;99.90;;;;;;10167157;29;20235;-82
2023/04/08 01:11:00;;;;;;;13.87;9.83;;;7.20;99.90;;;;;;10165420;29;20266;-82
2023/04/08 01:16:03;;;;;;;15.80;11.33;;;7.20;99.90;;;;;;10149350;29;20271;-82
2023/04/08 01:21:06;;;;;;;15.17;11.50;;;6.90;99.90;;;;;;10135762;29;20236;-82
2023/04/08 01:26:20;;;;;;;19.60;12.87;;;6.50;99.90;;;;;;10167247;29;20235;-82
2023/04/08 01:31:25;;;;;;;13.43;10.23;;;6.30;99.90;;;;;;10166210;29;20263;-82
2023/04/08 01:36:28;;;;;;;16.27;10.77;;;5.10;99.90;;;;;;10165521;29;20239;-82
2023/04/08 01:41:34;;;;;;;19.90;11.67;;;4.50;99.90;;;;;;10165774;29;20293;-82
2023/04/08 01:46:39;;;;;;;16.67;10.83;;;4.40;99.90;;;;;;10167077;29;21053;-82
2023/04/08 01:51:43;;;;;;;15.90;10.90;;;4.10;99.90;;;;;;10165711;29;20631;-82
2023/04/08 01:56:46;;;;;;;19.67;11.03;;;4.20;99.90;;;;;;10166363;29;20591;-82
2023/04/08 02:01:52;;;;;;;17.87;12.40;;;4.20;99.90;;;;;;10165855;29;20305;-82
2023/04/08 02:06:56;;;;;;;16.97;12.00;;;4.40;99.90;;;;;;10163666;29;20246;-82
2023/04/08 02:11:58;;;;;;;14.10;9.00;;;4.90;99.90;;;;;;10166787;29;20658;-82
2023/04/08 02:17:09;;;;;;;15.67;10.03;;;5.50;99.90;;;;;;10166838;29;20327;-82
2023/04/08 02:22:28;;;;;;;21.40;14.83;;;5.70;99.90;;;;;;10133292;29;20701;-82
2023/04/08 02:27:33;;;;;;;17.80;11.60;;;5.30;99.90;;;;;;10166679;29;20302;-82
2023/04/08 02:32:37;;;;;;;19.90;13.07;;;5.30;99.90;;;;;;10172405;29;20952;-82
2023/04/08 02:37:40;;;;;;;19.73;13.90;;;4.80;99.90;;;;;;10172550;29;20234;-82
2023/04/08 02:42:43;;;;;;;19.53;13.10;;;4.50;99.90;;;;;;10173138;29;20637;-82
2023/04/08 02:47:46;;;;;;;19.67;13.37;;;4.00;99.90;;;;;;10172393;29;20235;-82
2023/04/08 02:52:49;;;;;;;16.57;11.50;;;3.60;99.90;;;;;;10171959;29;20250;-82
2023/04/08 02:57:52;;;;;;;15.37;11.47;;;3.50;99.90;;;;;;10171860;29;20241;-82
2023/04/08 03:02:54;;;;;;;16.60;9.50;;;3.60;99.90;;;;;;10171568;29;20226;-82
2023/04/08 03:07:58;;;;;;;13.93;9.60;;;3.60;99.90;;;;;;10172263;29;20271;-82
2023/04/08 03:13:00;;;;;;;13.60;10.13;;;3.50;99.90;;;;;;10170699;29;20731;-81
2023/04/08 03:18:03;;;;;;;15.10;11.73;;;3.40;99.90;;;;;;10172168;29;20300;-81
2023/04/08 03:23:06;;;;;;;14.63;9.50;;;3.20;99.90;;;;;;10171500;29;20230;-81
2023/04/08 03:28:08;;;;;;;12.63;8.87;;;3.30;99.90;;;;;;10170582;29;20311;-82
2023/04/08 03:33:11;;;;;;;13.57;9.23;;;3.60;99.90;;;;;;10171860;29;20287;-82
2023/04/08 03:38:14;;;;;;;21.47;13.80;;;3.70;99.90;;;;;;10170332;29;20301;-82
2023/04/08 03:43:20;;;;;;;17.57;12.27;;;3.70;99.90;;;;;;10160711;29;20234;-81
2023/04/08 03:48:22;;;;;;;15.20;11.07;;;3.40;99.90;;;;;;10132434;29;20264;-82
2023/04/08 03:53:28;;;;;;;14.77;11.33;;;3.10;99.90;;;;;;10131846;29;20670;-81
2023/04/08 03:58:30;;;;;;;15.40;10.10;;;;;;;;;;10144275;29;20238;-81
2023/04/08 04:03:33;;;;;;;15.37;10.87;;;2.50;99.90;;;;;;10169938;29;20291;-82
2023/04/08 04:08:36;;;;;;;20.57;12.30;;;2.50;99.90;;;;;;10169742;29;20246;-81
2023/04/08 04:13:38;;;;;;;17.87;11.57;;;2.30;99.90;;;;;;10169259;29;20751;-81
2023/04/08 04:18:41;;;;;;;15.93;10.83;;;2.20;99.90;;;;;;10168916;29;20242;-82
2023/04/08 04:23:43;;;;;;;16.37;11.40;;;2.20;99.90;;;;;;10167550;29;20241;-82
2023/04/08 04:28:48;;;;;;;16.63;10.60;;;1.70;99.90;;;;;;10167891;29;20244;-81
2023/04/08 04:33:51;;;;;;;13.17;8.50;;;1.60;99.90;;;;;;10168098;29;20269;-81
2023/04/08 04:38:54;;;;;;;13.57;9.97;;;1.90;99.90;;;;;;10166703;29;20266;-82
2023/04/08 04:43:57;;;;;;;16.03;11.73;;;2.00;99.90;;;;;;10167290;29;20246;-81
2023/04/08 04:49:00;;;;;;;18.00;11.27;;;2.20;99.90;;;;;;10167150;29;20248;-81
2023/04/08 04:54:02;;;;;;;14.33;10.50;;;2.30;99.90;;;;;;10167192;29;20294;-81
2023/04/08 04:59:05;;;;;;;14.27;10.37;;;2.70;99.90;;;;;;10168476;29;20243;-82
2023/04/08 05:04:08;;;;;;;15.37;11.20;;;2.90;99.90;;;;;;10164960;29;20279;-81
2023/04/08 05:09:10;;;;;;;18.80;12.90;;;3.00;99.90;;;;;;10167038;29;20253;-81
2023/04/08 05:14:13;;;;;;;20.77;11.90;;;3.10;99.90;;;;;;10166990;29;20314;-81
2023/04/08 05:19:15;;;;;;;15.63;11.07;;;3.20;99.90;;;;;;10168127;29;20255;-81
2023/04/08 05:24:18;;;;;;;18.80;13.13;;;3.50;99.90;;;;;;10167592;29;20267;-82
2023/04/08 05:29:20;;;;;;;15.13;11.03;;;3.80;99.90;;;;;;10167687;29;20232;-81
2023/04/08 05:34:23;;;;;;;20.60;12.97;;;4.00;99.90;;;;;;10167436;29;20321;-81
2023/04/08 05:39:26;;;;;;;14.03;9.43;;;4.20;99.90;;;;;;10165796;29;20293;-82
2023/04/08 05:44:28;;;;;;;18.37;13.40;;;4.60;99.90;;;;;;10167074;29;20263;-81
2023/04/08 05:49:30;;;;;;;15.47;10.60;;;5.10;99.90;;;;;;10165819;29;20267;-82
2023/04/08 05:54:33;;;;;;;23.67;16.03;;;5.60;99.90;;;;;;10172714;29;20739;-81
2023/04/08 05:59:35;;;;;;;20.13;13.83;;;5.70;99.90;;;;;;10173750;29;20235;-82
2023/04/08 06:04:38;;;;;;;24.63;16.70;;;5.80;99.90;;;;;;10174461;29;20301;-81
2023/04/08 06:09:40;;;;;;;29.53;17.60;;;6.10;99.90;;;;;;10174296;29;20211;-81
2023/04/08 06:14:45;;;;;;;29.13;17.83;;;6.30;99.90;;;;;;10172299;29;20274;-81
2023/04/08 06:19:48;;;;;;;24.37;16.90;;;;;;;;;;10172303;29;22045;-82
2023/04/08 06:24:51;;;;;;;29.57;17.57;;;7.50;99.90;;;;;;10174496;29;20299;-82
2023/04/08 06:29:54;;;;;;;31.80;18.87;;;7.00;99.90;;;;;;10171919;29;20231;-81
2023/04/08 06:34:56;;;;;;;27.70;18.10;;;7.10;99.90;;;;;;10172697;29;20314;-81
2023/04/08 06:39:59;;;;;;;27.90;18.57;;;7.50;99.90;;;;;;10173027;29;20223;-81
2023/04/08 06:45:02;;;;;;;18.23;13.33;;;7.10;99.90;;;;;;10172786;29;20243;-82
2023/04/08 06:50:05;;;;;;;25.67;16.77;;;7.40;99.90;;;;;;10171645;29;20243;-81
2023/04/08 06:55:08;;;;;;;31.77;21.10;;;7.50;99.90;;;;;;10172014;29;20250;-81
2023/04/08 07:00:11;;;;;;;26.10;16.07;;;7.70;99.90;;;;;;10171021;29;20267;-81
2023/04/08 07:05:14;;;;;;;30.13;17.80;;;8.00;99.90;;;;;;10168914;29;20251;-81
2023/04/08 07:10:16;;;;;;;32.77;21.60;;;8.10;99.90;;;;;;10171870;29;20279;-81
2023/04/08 07:15:19;;;;;;;29.37;20.27;;;7.80;99.90;;;;;;10172080;29;20303;-81
2023/04/08 07:20:22;;;;;;;26.00;18.47;;;8.40;99.90;;;;;;10169080;29;20239;-81
2023/04/08 07:25:25;;;;;;;24.50;16.73;;;8.40;99.90;;;;;;10151183;29;20240;-81
2023/04/08 07:30:27;;;;;;;27.07;17.77;;;8.40;99.90;;;;;;10167978;29;20687;-81
2023/04/08 07:35:30;;;;;;;28.97;19.60;;;8.70;99.90;;;;;;10170150;29;20262;-82
2023/04/08 07:40:33;;;;;;;21.93;14.43;;;8.70;99.90;;;;;;10168091;29;20651;-82
2023/04/08 07:45:36;;;;;;;14.37;10.83;;;8.40;99.90;;;;;;10170381;29;20294;-82
2023/04/08 07:50:38;;;;;;;31.20;19.80;;;8.80;99.90;;;;;;10170954;29;20287;-83
2023/04/08 07:56:02;;;;;;;28.47;19.43;;;9.00;99.90;;;;;;10169871;29;21002;-82
2023/04/08 08:01:20;;;;;;;23.33;16.20;;;8.80;99.90;;;;;;10170921;29;20243;-82
2023/04/08 08:06:23;;;;;;;26.67;18.80;;;8.80;99.90;;;;;;10169872;29;20263;-82
2023/04/08 08:11:26;;;;;;;30.77;21.13;;;9.00;99.90;;;;;;10169479;29;20243;-82
2023/04/08 08:16:30;;;;;;;19.67;13.47;;;9.20;99.90;;;;;;10169407;29;20291;-81
2023/04/08 08:21:36;;;;;;;15.53;10.83;;;9.30;99.90;;;;;;10169980;29;20243;-81
2023/04/08 08:26:39;;;;;;;29.90;19.83;;;9.30;99.90;;;;;;10168648;29;20700;-82
2023/04/08 08:31:42;;;;;;;23.30;15.50;;;8.90;99.90;;;;;;10152952;29;20255;-82
2023/04/08 08:36:45;;;;;;;23.03;16.87;;;8.80;99.90;;;;;;10168490;29;20259;-82
2023/04/08 08:41:47;;;;;;;22.07;14.97;;;9.20;99.90;;;;;;10167632;29;20650;-82
2023/04/08 08:46:50;;;;;;;10.47;7.53;;;9.50;99.90;;;;;;10166168;29;20626;-82
2023/04/08 08:51:54;;;;;;;24.83;16.13;;;9.80;99.90;;;;;;10164264;29;20302;-82
2023/04/08 08:56:57;;;;;;;25.37;17.07;;;9.70;99.90;;;;;;10163697;29;20962;-82
2023/04/08 09:02:00;;;;;;;28.27;19.67;;;9.70;99.90;;;;;;10164504;29;20314;-91
2023/04/08 09:07:10;;;;;;;25.20;17.40;;;10.40;99.90;;;;;;10166026;29;20235;-92
2023/04/08 09:12:13;;;;;;;31.67;22.10;;;10.30;99.90;;;;;;10164041;29;20649;-92
2023/04/08 09:17:32;;;;;;;22.37;16.87;;;10.40;99.90;;;;;;10164492;29;20259;-92
2023/04/08 09:22:55;;;;;;;20.60;14.30;;;10.60;99.90;;;;;;10166517;29;20227;-91
2023/04/08 09:27:58;;;;;;;32.10;20.87;;;10.50;99.90;;;;;;10190619;29;20617;-91
2023/04/08 09:33:05;;;;;;;23.63;16.37;;;10.70;99.90;;;;;;10172460;29;20298;-92
2023/04/08 09:38:09;;;;;;;32.23;22.10;;;;;;;;;;10170811;29;20384;-93
2023/04/08 09:43:14;;;;;;;29.77;20.33;;;11.60;99.90;;;;;;10172097;29;20235;-93
2023/04/08 09:48:23;;;;;;;24.27;16.27;;;11.50;99.90;;;;;;10172852;29;20256;-92
2023/04/08 09:53:53;;;;;;;28.30;19.57;;;11.60;99.90;;;;;;10171090;29;20263;-92
2023/04/08 09:59:02;;;;;;;32.73;18.30;;;11.60;99.90;;;;;;10168081;29;20243;-92
2023/04/08 10:04:16;;;;;;;16.83;11.70;;;11.50;99.90;;;;;;10162103;29;20290;-92
2023/04/08 10:09:21;;;;;;;21.97;16.43;;;11.50;99.90;;;;;;10175032;29;20243;-91
2023/04/08 10:14:27;;;;;;;28.17;15.80;;;11.60;99.90;;;;;;10174853;29;20263;-92
2023/04/08 10:19:41;;;;;;;29.70;19.53;;;11.50;99.90;;;;;;10173084;29;20318;-93
2023/04/08 10:25:15;;;;;;;21.30;13.83;;;11.50;98.30;;;;;;10142073;29;20299;-86
2023/04/08 10:30:27;;;;;;;21.47;15.63;;;12.30;99.90;;;;;;10165613;29;21126;-92
2023/04/08 10:35:30;;;;;;;24.80;16.20;;;12.50;99.90;;;;;;10166763;29;20259;-91
2023/04/08 10:40:41;;;;;;;23.60;17.23;;;12.40;99.90;;;;;;10169557;29;20235;-92
2023/04/08 10:45:50;;;;;;;25.63;16.50;;;12.40;99.90;;;;;;10172708;29;20271;-90
2023/04/08 10:50:54;;;;;;;20.87;14.13;;;12.70;99.90;;;;;;10171952;29;20243;-91
2023/04/08 10:56:14;;;;;;;28.27;17.90;;;12.50;95.40;;;;;;10172897;29;20262;-91
2023/04/08 11:01:17;;;;;;;21.63;15.20;;;12.60;97.30;;;;;;10171843;29;20239;-90
2023/04/08 11:06:20;;;;;;;25.43;16.43;;;12.90;99.90;;;;;;10172514;29;20748;-91
2023/04/08 11:11:28;;;;;;;24.30;16.60;;;12.90;98.90;;;;;;10172437;29;20239;-91
2023/04/08 11:16:31;;;;;;;21.87;14.83;;;12.80;99.60;;;;;;10172288;29;20732;-92
2023/04/08 11:21:35;;;;;;;19.80;13.03;;;12.70;96.70;;;;;;10170213;29;20618;-93
2023/04/08 11:26:39;;;;;;;21.73;15.57;;;12.80;99.90;;;;;;10170753;29;20305;-89
2023/04/08 11:31:42;;;;;;;24.00;16.60;;;12.90;96.90;;;;;;10170237;29;20271;-90
2023/04/08 11:36:46;;;;;;;24.17;18.60;;;12.60;92.20;;;;;;10170189;29;20267;-94
2023/04/08 11:41:48;;;;;;;24.47;18.03;;;12.60;93.60;;;;;;10173590;29;20631;-94
2023/04/08 11:46:56;;;;;;;22.63;15.60;;;12.70;95.80;;;;;;10170289;29;20239;-94
2023/04/08 11:51:59;;;;;;;21.17;15.70;;;12.80;96.40;;;;;;10169679;29;20216;-91
2023/04/08 11:57:02;;;;;;;19.00;14.47;;;13.10;94.90;;;;;;10179028;29;20653;-92
2023/04/08 12:02:05;;;;;;;23.50;18.07;;;13.00;94.60;;;;;;10170180;29;20239;-89
2023/04/08 12:07:09;;;;;;;25.57;18.93;;;12.80;87.80;;;;;;10168659;29;20291;-91
2023/04/08 12:12:12;;;;;;;27.27;21.57;;;12.20;90.20;;;;;;10169652;29;20623;-94
2023/04/08 12:17:14;;;;;;;27.53;20.60;;;12.30;93.20;;;;;;10169741;29;20251;-93
2023/04/08 12:22:17;;;;;;;24.57;19.20;;;12.70;93.70;;;;;;10171572;29;20262;-93
2023/04/08 12:27:19;;;;;;;28.30;22.03;;;12.80;90.90;;;;;;10172164;29;20676;-95
2023/04/08 12:32:24;;;;;;;26.30;20.10;;;12.70;91.90;;;;;;10149160;29;20259;-94
2023/04/08 12:37:27;;;;;;;24.70;19.17;;;12.50;92.40;;;;;;10138965;29;20267;-95
2023/04/08 12:42:30;;;;;;;25.63;19.37;;;12.50;93.00;;;;;;10140448;29;20843;-94
2023/04/08 12:47:35;;;;;;;26.63;22.23;;;12.80;91.10;;;;;;10173412;29;20470;-93
2023/04/08 12:52:38;;;;;;;24.27;19.23;;;12.60;86.10;;;;;;10171343;29;20223;-89
2023/04/08 12:57:41;;;;;;;27.83;20.27;;;12.60;86.40;;;;;;10169401;29;20266;-93
2023/04/08 13:02:44;;;;;;;30.47;21.20;;;12.60;87.10;;;;;;10169286;29;20302;-91
2023/04/08 13:07:47;;;;;;;27.07;19.40;;;12.10;88.10;;;;;;10167097;29;20254;-95
2023/04/08 13:12:50;;;;;;;23.00;16.20;;;12.00;91.30;;;;;;10147390;29;20243;-93
2023/04/08 13:17:53;;;;;;;23.10;14.83;;;12.00;89.30;;;;;;10164004;29;20262;-93
2023/04/08 13:22:55;;;;;;;18.57;12.90;;;12.40;98.60;;;;;;10160663;29;20999;-92
2023/04/08 13:27:58;;;;;;;16.00;11.40;;;12.80;96.40;;;;;;10150008;29;20239;-91
2023/04/08 13:33:01;;;;;;;30.40;18.53;;;13.10;96.70;;;;;;10168624;29;20208;-92
2023/04/08 13:38:03;;;;;;;23.33;15.80;;;13.20;89.40;;;;;;10171807;29;20223;-93
2023/04/08 13:43:07;;;;;;;20.50;12.33;;;13.20;90.30;;;;;;10172329;29;20741;-94
2023/04/08 13:48:09;;;;;;;13.10;9.93;;;13.50;92.60;;;;;;10168941;29;20259;-92
2023/04/08 13:53:13;;;;;;;25.73;19.53;;;13.70;97.90;;;;;;10168634;29;20689;-93
2023/04/08 13:58:17;;;;;;;21.07;15.17;;;13.60;87.20;;;;;;10170379;29;20255;-94
2023/04/08 14:03:26;;;;;;;22.73;16.80;;;13.50;91.30;;;;;;10169695;29;20271;-93
2023/04/08 14:08:29;;;;;;;30.97;21.57;;;13.00;82.70;;;;;;10169150;29;20258;-94
2023/04/08 14:13:32;;;;;;;22.60;16.10;;;12.50;86.80;;;;;;10172722;29;20236;-92
2023/04/08 14:18:35;;;;;;;26.77;18.87;;;12.10;89.10;;;;;;10178272;29;20698;-93
2023/04/08 14:23:37;;;;;;;24.53;16.63;;;12.00;90.10;;;;;;10175932;29;20227;-92
2023/04/08 14:28:40;;;;;;;25.37;18.90;;;12.10;95.00;;;;;;10174173;29;20243;-93
2023/04/08 14:33:43;;;;;;;19.50;15.03;;;12.10;92.20;;;;;;10174340;29;20314;-92
2023/04/08 14:38:45;;;;;;;13.77;11.47;;;12.30;94.80;;;;;;10174837;29;20697;-92
2023/04/08 14:43:48;;;;;;;27.00;19.80;;;12.60;99.90;;;;;;10178391;29;20248;-95
2023/04/08 14:48:51;;;;;;;26.83;18.90;;;12.50;90.70;;;;;;10179032;29;20196;-94
2023/04/08 14:53:54;;;;;;;23.53;16.57;;;12.40;89.70;;;;;;10179827;29;20279;-93
2023/04/08 14:58:56;;;;;;;21.13;14.77;;;12.40;90.70;;;;;;10179317;29;20259;-93
2023/04/08 15:03:59;;;;;;;19.67;14.17;;;12.30;90.10;;;;;;10178126;29;20657;-94
2023/04/08 15:09:02;;;;;;;27.87;17.10;;;12.20;91.40;;;;;;10175236;29;20215;-93
2023/04/08 15:14:05;;;;;;;19.67;15.00;;;12.40;93.40;;;;;;10174867;29;20244;-93
2023/04/08 15:19:07;;;;;;;21.77;14.97;;;12.60;91.70;;;;;;10157834;29;20200;-95
2023/04/08 15:24:10;;;;;;;22.53;15.87;;;12.70;90.70;;;;;;10171802;29;20294;-87
2023/04/08 15:29:12;;;;;;;19.23;13.87;;;12.50;85.30;;;;;;10161032;29;20244;-87
2023/04/08 15:34:15;;;;;;;26.23;15.80;;;12.30;86.80;;;;;;10132798;29;20256;-87
2023/04/08 15:39:18;;;;;;;37.33;18.40;;;12.50;88.60;;;;;;10154829;29;20752;-87
2023/04/08 15:44:21;;;;;;;102.20;37.50;;;12.50;88.60;;;;;;10170157;29;20266;-86
2023/04/08 15:49:24;;;;;;;24.73;17.67;;;12.60;92.50;;;;;;10168157;29;20318;-87
2023/04/08 15:54:27;;;;;;;22.47;15.97;;;12.60;92.10;;;;;;10136552;29;20672;-87
2023/04/08 15:59:32;;;;;;;144.23;45.70;;;12.50;86.30;;;;;;10157192;29;20244;-87
2023/04/08 16:04:35;;;;;;;25.70;15.00;;;12.50;95.70;;;;;;10157723;29;20640;-88
2023/04/08 16:09:37;;;;;;;17.43;13.07;;;12.50;92.40;;;;;;10166934;29;20239;-87
2023/04/08 16:14:40;;;;;;;26.23;15.73;;;12.60;90.80;;;;;;10169492;29;20271;-88
2023/04/08 16:19:42;;;;;;;19.27;14.20;;;12.50;91.40;;;;;;10167598;29;20270;-87
2023/04/08 16:24:45;;;;;;;16.77;13.07;;;12.40;89.30;;;;;;10147729;29;20704;-90
2023/04/08 16:29:47;;;;;;;19.73;12.40;;;12.40;89.90;;;;;;10169446;29;20322;-89
2023/04/08 16:34:50;;;;;;;20.97;14.80;;;12.20;85.60;;;;;;10167365;29;20659;-88
2023/04/08 16:39:53;;;;;;;17.83;13.20;;;12.20;84.40;;;;;;10167374;29;20295;-89
2023/04/08 16:44:56;;;;;;;17.33;13.23;;;12.10;85.20;;;;;;10162205;29;20299;-89
2023/04/08 16:49:59;;;;;;;25.07;16.33;;;12.00;86.40;;;;;;10167751;29;20294;-96
2023/04/08 16:55:03;;;;;;;18.33;13.73;;;11.60;87.30;;;;;;10168852;29;20314;-94
2023/04/08 17:00:08;;;;;;;60.03;31.57;;;11.40;89.30;;;;;;10169996;29;20648;-95
2023/04/08 17:05:10;;;;;;;18.10;13.63;;;11.20;89.10;;;;;;10168604;29;20219;-92
2023/04/08 17:10:14;;;;;;;29.27;18.90;;;10.70;91.00;;;;;;10163714;29;20314;-93
2023/04/08 17:15:16;;;;;;;86.27;38.00;;;10.50;91.90;;;;;;10167397;29;20302;-91
2023/04/08 17:20:19;;;;;;;114.43;54.77;;;10.20;93.40;;;;;;9486234;29;10000657;-92
2023/04/08 17:25:22;;;;;;;53.23;30.50;;;10.00;94.60;;;;;;10163679;29;20278;-93
2023/04/08 17:30:25;;;;;;;67.47;35.77;;;9.60;97.00;;;;;;10162504;29;20242;-94
2023/04/08 17:35:27;;;;;;;61.33;33.10;;;9.30;97.70;;;;;;10165102;29;20654;-93
2023/04/08 17:40:30;;;;;;;110.63;62.80;;;9.20;98.50;;;;;;10155053;29;20682;-93
2023/04/08 17:45:32;;;;;;;91.80;49.53;;;9.00;99.90;;;;;;10149173;29;20266;-93
2023/04/08 17:50:36;;;;;;;55.93;29.77;;;;;;;;;;10169771;29;20238;-93
2023/04/08 17:55:38;;;;;;;56.60;29.87;;;8.20;99.90;;;;;;10159528;29;20329;-93
2023/04/08 18:00:41;;;;;;;56.33;28.47;;;8.00;99.90;;;;;;10171159;29;20227;-93
2023/04/08 18:05:43;;;;;;;56.73;30.10;;;7.80;99.90;;;;;;10172521;29;20696;-92
2023/04/08 18:10:46;;;;;;;52.87;29.60;;;7.50;99.90;;;;;;10172126;29;20242;-91
2023/04/08 18:15:48;;;;;;;35.23;23.80;;;7.50;99.90;;;;;;10171484;29;20725;-93
2023/04/08 18:20:51;;;;;;;37.00;22.17;;;7.30;99.90;;;;;;10170873;29;20293;-94
2023/04/08 18:25:53;;;;;;;43.60;25.17;;;7.10;99.90;;;;;;10174541;29;20242;-93
2023/04/08 18:30:56;;;;;;;50.67;28.83;;;;;;;;;;10180290;29;20210;-96
2023/04/08 18:36:09;;;;;;;52.63;29.40;;;6.70;99.90;;;;;;10181577;29;20238;-95
2023/04/08 18:41:12;;;;;;;65.23;43.37;;;6.70;99.90;;;;;;10181825;29;20201;-96
2023/04/08 18:46:15;;;;;;;53.97;30.73;;;6.60;99.90;;;;;;10179064;29;20689;-94
2023/04/08 18:51:17;;;;;;;48.23;26.57;;;6.50;99.90;;;;;;10197002;29;20211;-92
2023/04/08 18:56:20;;;;;;;32.43;19.43;;;6.40;99.90;;;;;;10192855;29;20642;-94
2023/04/08 19:01:22;;;;;;;37.23;22.97;;;6.10;99.90;;;;;;10196014;29;20211;-92
2023/04/08 19:06:25;;;;;;;49.73;29.67;;;5.90;99.90;;;;;;10179228;29;20219;-93
2023/04/08 19:11:28;;;;;;;48.47;29.10;;;5.80;99.90;;;;;;10180167;29;20214;-93
2023/04/08 19:16:32;;;;;;;60.80;35.90;;;;;;;;;;10188735;29;20232;-94
2023/04/08 19:21:36;;;;;;;41.13;26.03;;;;;;;;;;10191550;29;20240;-94
2023/04/08 19:26:39;;;;;;;42.20;27.17;;;5.40;99.90;;;;;;10180433;29;20280;-92
2023/04/08 19:31:41;;;;;;;47.83;28.87;;;5.70;99.90;;;;;;10187927;29;20213;-93
2023/04/08 19:36:45;;;;;;;39.87;26.40;;;5.80;99.90;;;;;;10186546;29;20258;-93
2023/04/08 19:41:47;;;;;;;28.77;19.20;;;5.40;99.90;;;;;;10176074;29;20211;-92
2023/04/08 19:46:50;;;;;;;40.83;27.80;;;5.60;99.90;;;;;;10176817;29;20209;-92
2023/04/08 19:51:53;;;;;;;40.03;26.77;;;5.50;99.90;;;;;;10178973;29;20255;-93
2023/04/08 19:56:57;;;;;;;39.50;27.40;;;5.40;99.90;;;;;;10175154;29;20234;-93
2023/04/08 20:01:59;;;;;;;48.90;31.00;;;5.60;99.90;;;;;;10182490;29;20254;-93
2023/04/08 20:07:02;;;;;;;37.23;23.50;;;5.20;99.90;;;;;;10181683;29;20292;-92
2023/04/08 20:12:06;;;;;;;49.13;29.00;;;5.20;99.90;;;;;;10175995;29;20238;-92
2023/04/08 20:17:09;;;;;;;44.20;27.83;;;5.20;99.90;;;;;;10167987;29;20245;-93
2023/04/08 20:22:11;;;;;;;43.80;27.47;;;5.30;99.90;;;;;;10176298;29;20215;-94
2023/04/08 20:27:13;;;;;;;47.63;29.53;;;5.20;99.90;;;;;;10166196;29;20200;-93
2023/04/08 20:32:16;;;;;;;48.20;30.63;;;5.00;99.90;;;;;;10181555;29;20255;-93
2023/04/08 20:37:18;;;;;;;37.77;23.47;;;4.90;99.90;;;;;;10176302;29;20272;-95
2023/04/08 20:42:21;;;;;;;49.30;36.67;;;4.80;99.90;;;;;;10174118;29;20675;-92
2023/04/08 20:47:24;;;;;;;55.03;34.60;;;4.10;99.90;;;;;;10172789;29;20212;-96
2023/04/08 20:52:29;;;;;;;56.73;38.77;;;;;;;;;;10237542;23;20234;-82
2023/04/08 20:57:31;;;;;;;74.93;44.93;;;3.70;99.90;;;;;;10243765;29;20249;-82
2023/04/08 21:02:35;;;;;;;94.03;50.40;;;3.60;99.90;;;;;;10242033;28;20242;-83
2023/04/08 21:07:42;;;;;;;67.77;39.83;;;3.60;99.90;;;;;;10216478;29;20230;-83
2023/04/08 21:12:47;;;;;;;40.90;25.53;;;3.60;99.90;;;;;;10219859;29;20695;-83
2023/04/08 21:17:50;;;;;;;27.10;17.63;;;3.80;99.90;;;;;;10226161;29;20718;-82
2023/04/08 21:22:52;;;;;;;46.50;30.90;;;4.00;99.90;;;;;;10217390;28;20235;-83
2023/04/08 21:27:55;;;;;;;55.13;33.70;;;4.10;99.90;;;;;;9887852;29;10000191;-83
2023/04/08 21:32:57;;;;;;;38.53;22.63;;;4.20;99.90;;;;;;10228602;29;20239;-83
2023/04/08 21:38:01;;;;;;;28.90;17.43;;;4.20;99.90;;;;;;10219825;29;20257;-83
2023/04/08 21:43:04;;;;;;;47.77;27.03;;;4.60;99.90;;;;;;10235613;29;20236;-83
2023/04/08 21:48:06;;;;;;;36.53;22.80;;;4.90;99.90;;;;;;10242305;28;20709;-83
2023/04/08 21:53:09;;;;;;;52.80;33.37;;;5.10;99.90;;;;;;10238888;29;20292;-83
2023/04/08 21:58:13;;;;;;;36.00;23.70;;;5.10;99.90;;;;;;10228385;28;21004;-83
2023/04/08 22:03:16;;;;;;;35.97;22.13;;;5.20;99.90;;;;;;10238800;29;20235;-83
2023/04/08 22:08:18;;;;;;;39.00;24.97;;;5.20;99.90;;;;;;10236324;29;20252;-81
2023/04/08 22:13:21;;;;;;;47.23;31.20;;;5.20;99.90;;;;;;10202748;29;20246;-82
2023/04/08 22:18:24;;;;;;;47.33;31.00;;;5.10;99.90;;;;;;10206328;29;20267;-82
2023/04/08 22:23:26;;;;;;;53.80;31.23;;;5.00;99.90;;;;;;10211873;29;20255;-83
2023/04/08 22:28:29;;;;;;;37.20;25.90;;;4.80;99.90;;;;;;10240097;29;20248;-83
2023/04/08 22:33:31;;;;;;;45.03;25.87;;;4.80;99.90;;;;;;10239234;28;20239;-83
2023/04/08 22:38:34;;;;;;;58.10;35.07;;;4.90;99.90;;;;;;10239734;29;20322;-83
2023/04/08 22:43:37;;;;;;;54.43;31.30;;;4.80;99.90;;;;;;10241438;28;20227;-82
2023/04/08 22:48:40;;;;;;;50.73;32.50;;;4.90;99.90;;;;;;10244715;29;20327;-82
2023/04/08 22:53:42;;;;;;;38.33;23.90;;;4.90;99.90;;;;;;10243785;29;20333;-83
2023/04/08 22:58:45;;;;;;;37.50;24.43;;;5.50;99.90;;;;;;10223701;29;20261;-83
2023/04/08 23:03:48;;;;;;;48.33;29.60;;;5.90;99.90;;;;;;10232587;29;20301;-84
2023/04/08 23:08:51;;;;;;;40.03;26.60;;;6.10;99.90;;;;;;10237935;29;20282;-85
2023/04/08 23:13:54;;;;;;;47.17;29.50;;;6.40;99.90;;;;;;10216873;29;20246;-88
2023/04/08 23:18:56;;;;;;;50.00;30.50;;;6.40;99.90;;;;;;10248647;29;20252;-85
2023/04/08 23:23:59;;;;;;;44.53;26.13;;;6.50;99.90;;;;;;10238099;28;20268;-86
2023/04/08 23:29:02;;;;;;;46.90;32.10;;;6.70;99.90;;;;;;10219806;29;20918;-86
2023/04/08 23:34:04;;;;;;;48.17;30.27;;;6.80;99.90;;;;;;10251236;29;20244;-87
2023/04/08 23:39:08;;;;;;;41.57;25.97;;;7.10;99.90;;;;;;10243352;29;20253;-86
2023/04/08 23:44:10;;;;;;;33.40;22.87;;;7.20;99.90;;;;;;10210207;29;20262;-86
2023/04/08 23:49:12;;;;;;;44.80;29.30;;;7.40;99.90;;;;;;10234086;29;20261;-85
2023/04/08 23:54:15;;;;;;;39.27;25.70;;;7.50;99.90;;;;;;10210895;29;20263;-85
2023/04/08 23:59:18;;;;;;;43.40;27.50;;;7.30;99.90;;;;;;10209320;29;20290;-86
